sensor_id;sensor_type;location;lat;lon;timestamp;P1;durP1;ratioP1;P2;durP2;ratioP2
13230;SDS011;6681;53.254;10.398;2023-04-24T00:01:28;3.53;;;3.23;;
13230;SDS011;6681;53.254;10.398;2023-04-24T00:03:54;5.43;;;4.37;;
13230;SDS011;6681;53.254;10.398;2023-04-24T00:06:24;3.50;;;3.20;;
13230;SDS011;6681;53.254;10.398;2023-04-24T00:08:58;5.70;;;3.60;;
13230;SDS011;6681;53.254;10.398;2023-04-24T00:11:25;4.03;;;3.73;;
13230;SDS011;6681;53.254;10.398;2023-04-24T00:13:51;4.70;;;4.30;;
13230;SDS011;6681;53.254;10.398;2023-04-24T00:16:16;3.90;;;3.60;;
13230;SDS011;6681;53.254;10.398;2023-04-24T00:18:42;3.20;;;2.83;;
13230;SDS011;6681;53.254;10.398;2023-04-24T00:21:09;3.70;;;3.17;;
13230;SDS011;6681;53.254;10.398;2023-04-24T00:23:35;4.03;;;3.63;;
13230;SDS011;6681;53.254;10.398;2023-04-24T00:26:01;3.90;;;3.60;;
13230;SDS011;6681;53.254;10.398;2023-04-24T00:28:27;3.83;;;2.87;;
13230;SDS011;6681;53.254;10.398;2023-04-24T00:30:53;4.43;;;4.03;;
13230;SDS011;6681;53.254;10.398;2023-04-24T00:33:19;4.10;;;2.90;;
13230;SDS011;6681;53.254;10.398;2023-04-24T00:35:45;3.50;;;3.20;;
13230;SDS011;6681;53.254;10.398;2023-04-24T00:38:10;4.03;;;2.97;;
13230;SDS011;6681;53.254;10.398;2023-04-24T00:40:36;3.63;;;3.10;;
13230;SDS011;6681;53.254;10.398;2023-04-24T00:43:02;3.67;;;3.40;;
13230;SDS011;6681;53.254;10.398;2023-04-24T00:45:27;3.40;;;3.10;;
13230;SDS011;6681;53.254;10.398;2023-04-24T00:47:53;3.10;;;2.90;;
13230;SDS011;6681;53.254;10.398;2023-04-24T00:50:20;2.93;;;2.73;;
13230;SDS011;6681;53.254;10.398;2023-04-24T00:52:46;3.93;;;3.33;;
13230;SDS011;6681;53.254;10.398;2023-04-24T00:55:12;3.17;;;2.87;;
13230;SDS011;6681;53.254;10.398;2023-04-24T00:57:38;4.77;;;2.87;;
13230;SDS011;6681;53.254;10.398;2023-04-24T01:00:04;4.07;;;3.33;;
13230;SDS011;6681;53.254;10.398;2023-04-24T01:02:35;3.33;;;3.03;;
13230;SDS011;6681;53.254;10.398;2023-04-24T01:05:04;2.37;;;2.17;;
13230;SDS011;6681;53.254;10.398;2023-04-24T01:07:32;3.20;;;2.87;;
13230;SDS011;6681;53.254;10.398;2023-04-24T01:10:00;3.83;;;3.43;;
13230;SDS011;6681;53.254;10.398;2023-04-24T01:12:26;4.43;;;3.47;;
13230;SDS011;6681;53.254;10.398;2023-04-24T01:14:52;3.20;;;3.00;;
13230;SDS011;6681;53.254;10.398;2023-04-24T01:17:17;3.23;;;2.90;;
13230;SDS011;6681;53.254;10.398;2023-04-24T01:19:43;3.33;;;2.87;;
13230;SDS011;6681;53.254;10.398;2023-04-24T01:22:15;2.97;;;2.77;;
13230;SDS011;6681;53.254;10.398;2023-04-24T01:24:42;2.63;;;2.30;;
13230;SDS011;6681;53.254;10.398;2023-04-24T01:27:08;4.93;;;3.07;;
13230;SDS011;6681;53.254;10.398;2023-04-24T01:29:35;3.27;;;2.30;;
13230;SDS011;6681;53.254;10.398;2023-04-24T01:32:02;2.73;;;2.53;;
13230;SDS011;6681;53.254;10.398;2023-04-24T01:34:28;2.83;;;1.97;;
13230;SDS011;6681;53.254;10.398;2023-04-24T01:36:54;2.03;;;1.73;;
13230;SDS011;6681;53.254;10.398;2023-04-24T01:39:21;3.83;;;2.00;;
13230;SDS011;6681;53.254;10.398;2023-04-24T01:41:48;4.47;;;2.00;;
13230;SDS011;6681;53.254;10.398;2023-04-24T01:44:15;2.00;;;1.90;;
13230;SDS011;6681;53.254;10.398;2023-04-24T01:46:41;1.73;;;1.63;;
13230;SDS011;6681;53.254;10.398;2023-04-24T01:49:06;1.20;;;1.10;;
13230;SDS011;6681;53.254;10.398;2023-04-24T01:51:32;1.83;;;1.70;;
13230;SDS011;6681;53.254;10.398;2023-04-24T01:53:58;3.50;;;1.37;;
13230;SDS011;6681;53.254;10.398;2023-04-24T01:56:23;2.10;;;1.37;;
13230;SDS011;6681;53.254;10.398;2023-04-24T01:58:50;1.73;;;1.50;;
13230;SDS011;6681;53.254;10.398;2023-04-24T02:01:19;1.70;;;1.27;;
13230;SDS011;6681;53.254;10.398;2023-04-24T02:03:45;1.40;;;1.30;;
13230;SDS011;6681;53.254;10.398;2023-04-24T02:06:10;0.80;;;0.80;;
13230;SDS011;6681;53.254;10.398;2023-04-24T02:08:36;1.10;;;1.00;;
13230;SDS011;6681;53.254;10.398;2023-04-24T02:11:02;1.73;;;1.37;;
13230;SDS011;6681;53.254;10.398;2023-04-24T02:13:28;1.60;;;1.33;;
13230;SDS011;6681;53.254;10.398;2023-04-24T02:15:53;0.90;;;0.90;;
13230;SDS011;6681;53.254;10.398;2023-04-24T02:18:19;1.50;;;0.80;;
13230;SDS011;6681;53.254;10.398;2023-04-24T02:20:45;1.13;;;1.10;;
13230;SDS011;6681;53.254;10.398;2023-04-24T02:23:11;3.40;;;1.00;;
13230;SDS011;6681;53.254;10.398;2023-04-24T02:25:38;1.23;;;1.13;;
13230;SDS011;6681;53.254;10.398;2023-04-24T02:28:03;1.20;;;1.10;;
13230;SDS011;6681;53.254;10.398;2023-04-24T02:30:29;1.57;;;1.07;;
13230;SDS011;6681;53.254;10.398;2023-04-24T02:32:55;1.43;;;0.97;;
13230;SDS011;6681;53.254;10.398;2023-04-24T02:35:21;1.20;;;1.17;;
13230;SDS011;6681;53.254;10.398;2023-04-24T02:37:47;1.40;;;1.23;;
13230;SDS011;6681;53.254;10.398;2023-04-24T02:40:12;2.47;;;0.90;;
13230;SDS011;6681;53.254;10.398;2023-04-24T02:42:38;1.17;;;1.00;;
13230;SDS011;6681;53.254;10.398;2023-04-24T02:45:04;2.70;;;1.30;;
13230;SDS011;6681;53.254;10.398;2023-04-24T02:47:30;1.07;;;0.90;;
13230;SDS011;6681;53.254;10.398;2023-04-24T02:49:55;2.23;;;1.00;;
13230;SDS011;6681;53.254;10.398;2023-04-24T02:52:21;1.50;;;0.60;;
13230;SDS011;6681;53.254;10.398;2023-04-24T02:54:47;1.17;;;0.90;;
13230;SDS011;6681;53.254;10.398;2023-04-24T02:57:12;0.87;;;0.87;;
13230;SDS011;6681;53.254;10.398;2023-04-24T02:59:38;2.20;;;0.87;;
13230;SDS011;6681;53.254;10.398;2023-04-24T03:02:03;0.83;;;0.80;;
13230;SDS011;6681;53.254;10.398;2023-04-24T03:04:29;0.90;;;0.90;;
13230;SDS011;6681;53.254;10.398;2023-04-24T03:06:55;0.73;;;0.73;;
13230;SDS011;6681;53.254;10.398;2023-04-24T03:09:21;0.67;;;0.67;;
13230;SDS011;6681;53.254;10.398;2023-04-24T03:11:47;1.30;;;0.70;;
13230;SDS011;6681;53.254;10.398;2023-04-24T03:14:14;1.23;;;0.80;;
13230;SDS011;6681;53.254;10.398;2023-04-24T03:16:40;2.33;;;1.23;;
13230;SDS011;6681;53.254;10.398;2023-04-24T03:19:06;0.50;;;0.50;;
13230;SDS011;6681;53.254;10.398;2023-04-24T03:21:31;1.53;;;1.00;;
13230;SDS011;6681;53.254;10.398;2023-04-24T03:23:57;1.73;;;0.83;;
13230;SDS011;6681;53.254;10.398;2023-04-24T03:26:22;1.70;;;1.17;;
13230;SDS011;6681;53.254;10.398;2023-04-24T03:28:48;0.67;;;0.67;;
13230;SDS011;6681;53.254;10.398;2023-04-24T03:31:14;1.40;;;0.73;;
13230;SDS011;6681;53.254;10.398;2023-04-24T03:33:40;0.87;;;0.87;;
13230;SDS011;6681;53.254;10.398;2023-04-24T03:36:06;1.50;;;0.90;;
13230;SDS011;6681;53.254;10.398;2023-04-24T03:38:32;1.53;;;0.80;;
13230;SDS011;6681;53.254;10.398;2023-04-24T03:40:57;0.83;;;0.77;;
13230;SDS011;6681;53.254;10.398;2023-04-24T03:43:23;1.07;;;0.87;;
13230;SDS011;6681;53.254;10.398;2023-04-24T03:45:48;0.83;;;0.83;;
13230;SDS011;6681;53.254;10.398;2023-04-24T03:48:14;0.83;;;0.80;;
13230;SDS011;6681;53.254;10.398;2023-04-24T03:50:40;0.90;;;0.70;;
13230;SDS011;6681;53.254;10.398;2023-04-24T03:53:05;2.10;;;0.73;;
13230;SDS011;6681;53.254;10.398;2023-04-24T03:55:31;0.70;;;0.70;;
13230;SDS011;6681;53.254;10.398;2023-04-24T03:57:57;2.33;;;0.80;;
13230;SDS011;6681;53.254;10.398;2023-04-24T04:00:22;0.63;;;0.63;;
13230;SDS011;6681;53.254;10.398;2023-04-24T04:02:48;1.87;;;0.63;;
13230;SDS011;6681;53.254;10.398;2023-04-24T04:05:14;0.70;;;0.70;;
13230;SDS011;6681;53.254;10.398;2023-04-24T04:07:39;0.90;;;0.53;;
13230;SDS011;6681;53.254;10.398;2023-04-24T04:10:05;3.60;;;0.60;;
13230;SDS011;6681;53.254;10.398;2023-04-24T04:12:32;0.77;;;0.77;;
13230;SDS011;6681;53.254;10.398;2023-04-24T04:14:58;2.23;;;0.60;;
13230;SDS011;6681;53.254;10.398;2023-04-24T04:17:25;0.70;;;0.70;;
13230;SDS011;6681;53.254;10.398;2023-04-24T04:19:51;1.23;;;1.10;;
13230;SDS011;6681;53.254;10.398;2023-04-24T04:22:17;0.70;;;0.60;;
13230;SDS011;6681;53.254;10.398;2023-04-24T04:24:42;2.83;;;1.03;;
13230;SDS011;6681;53.254;10.398;2023-04-24T04:27:09;0.50;;;0.50;;
13230;SDS011;6681;53.254;10.398;2023-04-24T04:29:35;0.73;;;0.60;;
13230;SDS011;6681;53.254;10.398;2023-04-24T04:32:01;0.80;;;0.73;;
13230;SDS011;6681;53.254;10.398;2023-04-24T04:34:27;0.50;;;0.50;;
13230;SDS011;6681;53.254;10.398;2023-04-24T04:36:53;1.33;;;0.70;;
13230;SDS011;6681;53.254;10.398;2023-04-24T04:39:19;0.60;;;0.60;;
13230;SDS011;6681;53.254;10.398;2023-04-24T04:41:45;0.40;;;0.40;;
13230;SDS011;6681;53.254;10.398;2023-04-24T04:44:14;1.80;;;0.67;;
13230;SDS011;6681;53.254;10.398;2023-04-24T04:46:40;1.60;;;0.70;;
13230;SDS011;6681;53.254;10.398;2023-04-24T04:49:06;0.73;;;0.50;;
13230;SDS011;6681;53.254;10.398;2023-04-24T04:51:33;1.10;;;0.47;;
13230;SDS011;6681;53.254;10.398;2023-04-24T04:53:59;0.40;;;0.40;;
13230;SDS011;6681;53.254;10.398;2023-04-24T04:56:25;1.03;;;0.43;;
13230;SDS011;6681;53.254;10.398;2023-04-24T04:58:51;0.53;;;0.50;;
13230;SDS011;6681;53.254;10.398;2023-04-24T05:01:16;0.40;;;0.40;;
13230;SDS011;6681;53.254;10.398;2023-04-24T05:03:42;0.50;;;0.50;;
13230;SDS011;6681;53.254;10.398;2023-04-24T05:06:08;0.73;;;0.63;;
13230;SDS011;6681;53.254;10.398;2023-04-24T05:08:33;0.87;;;0.57;;
13230;SDS011;6681;53.254;10.398;2023-04-24T05:10:59;1.43;;;1.33;;
13230;SDS011;6681;53.254;10.398;2023-04-24T05:13:25;0.63;;;0.53;;
13230;SDS011;6681;53.254;10.398;2023-04-24T05:15:51;0.50;;;0.50;;
13230;SDS011;6681;53.254;10.398;2023-04-24T05:18:17;0.77;;;0.53;;
13230;SDS011;6681;53.254;10.398;2023-04-24T05:20:43;1.57;;;0.63;;
13230;SDS011;6681;53.254;10.398;2023-04-24T05:23:11;1.70;;;0.50;;
13230;SDS011;6681;53.254;10.398;2023-04-24T05:25:36;1.90;;;1.30;;
13230;SDS011;6681;53.254;10.398;2023-04-24T05:28:04;0.43;;;0.43;;
13230;SDS011;6681;53.254;10.398;2023-04-24T05:30:30;3.03;;;0.93;;
13230;SDS011;6681;53.254;10.398;2023-04-24T05:32:55;0.90;;;0.83;;
13230;SDS011;6681;53.254;10.398;2023-04-24T05:35:21;1.57;;;0.60;;
13230;SDS011;6681;53.254;10.398;2023-04-24T05:37:48;2.33;;;1.20;;
13230;SDS011;6681;53.254;10.398;2023-04-24T05:40:13;1.67;;;0.80;;
13230;SDS011;6681;53.254;10.398;2023-04-24T05:42:39;0.70;;;0.70;;
13230;SDS011;6681;53.254;10.398;2023-04-24T05:45:05;1.20;;;0.47;;
13230;SDS011;6681;53.254;10.398;2023-04-24T05:47:31;0.60;;;0.60;;
13230;SDS011;6681;53.254;10.398;2023-04-24T05:49:56;2.23;;;0.67;;
13230;SDS011;6681;53.254;10.398;2023-04-24T05:52:22;0.70;;;0.70;;
13230;SDS011;6681;53.254;10.398;2023-04-24T05:54:48;3.10;;;1.10;;
13230;SDS011;6681;53.254;10.398;2023-04-24T05:57:13;0.70;;;0.70;;
13230;SDS011;6681;53.254;10.398;2023-04-24T05:59:40;1.17;;;1.00;;
13230;SDS011;6681;53.254;10.398;2023-04-24T06:02:06;2.57;;;0.53;;
13230;SDS011;6681;53.254;10.398;2023-04-24T06:04:32;1.83;;;1.03;;
13230;SDS011;6681;53.254;10.398;2023-04-24T06:06:58;0.53;;;0.53;;
13230;SDS011;6681;53.254;10.398;2023-04-24T06:09:24;2.33;;;0.80;;
13230;SDS011;6681;53.254;10.398;2023-04-24T06:11:50;0.60;;;0.60;;
13230;SDS011;6681;53.254;10.398;2023-04-24T06:14:18;0.70;;;0.70;;
13230;SDS011;6681;53.254;10.398;2023-04-24T06:16:44;1.20;;;0.60;;
13230;SDS011;6681;53.254;10.398;2023-04-24T06:19:10;0.80;;;0.80;;
13230;SDS011;6681;53.254;10.398;2023-04-24T06:21:36;1.17;;;0.70;;
13230;SDS011;6681;53.254;10.398;2023-04-24T06:24:01;0.70;;;0.70;;
13230;SDS011;6681;53.254;10.398;2023-04-24T06:26:28;1.47;;;0.60;;
13230;SDS011;6681;53.254;10.398;2023-04-24T06:28:54;1.73;;;0.53;;
13230;SDS011;6681;53.254;10.398;2023-04-24T06:31:20;1.80;;;0.60;;
13230;SDS011;6681;53.254;10.398;2023-04-24T06:33:46;1.47;;;0.40;;
13230;SDS011;6681;53.254;10.398;2023-04-24T06:36:13;0.70;;;0.70;;
13230;SDS011;6681;53.254;10.398;2023-04-24T06:38:39;0.70;;;0.70;;
13230;SDS011;6681;53.254;10.398;2023-04-24T06:41:05;0.97;;;0.70;;
13230;SDS011;6681;53.254;10.398;2023-04-24T06:43:31;2.00;;;0.50;;
13230;SDS011;6681;53.254;10.398;2023-04-24T06:45:57;2.10;;;0.50;;
13230;SDS011;6681;53.254;10.398;2023-04-24T06:48:23;1.30;;;1.20;;
13230;SDS011;6681;53.254;10.398;2023-04-24T06:50:50;3.30;;;0.80;;
13230;SDS011;6681;53.254;10.398;2023-04-24T06:53:15;1.07;;;0.60;;
13230;SDS011;6681;53.254;10.398;2023-04-24T06:55:41;0.50;;;0.50;;
13230;SDS011;6681;53.254;10.398;2023-04-24T06:58:11;0.40;;;0.40;;
13230;SDS011;6681;53.254;10.398;2023-04-24T07:00:37;0.77;;;0.57;;
13230;SDS011;6681;53.254;10.398;2023-04-24T07:03:03;0.40;;;0.40;;
13230;SDS011;6681;53.254;10.398;2023-04-24T07:05:30;0.70;;;0.50;;
13230;SDS011;6681;53.254;10.398;2023-04-24T07:07:58;0.67;;;0.50;;
13230;SDS011;6681;53.254;10.398;2023-04-24T07:10:24;0.40;;;0.40;;
13230;SDS011;6681;53.254;10.398;2023-04-24T07:12:52;1.23;;;0.40;;
13230;SDS011;6681;53.254;10.398;2023-04-24T07:15:17;0.67;;;0.40;;
13230;SDS011;6681;53.254;10.398;2023-04-24T07:17:43;2.90;;;0.67;;
13230;SDS011;6681;53.254;10.398;2023-04-24T07:20:09;0.90;;;0.60;;
13230;SDS011;6681;53.254;10.398;2023-04-24T07:22:39;0.40;;;0.40;;
13230;SDS011;6681;53.254;10.398;2023-04-24T07:25:05;0.47;;;0.47;;
13230;SDS011;6681;53.254;10.398;2023-04-24T07:27:32;0.67;;;0.67;;
13230;SDS011;6681;53.254;10.398;2023-04-24T07:29:58;1.43;;;0.40;;
13230;SDS011;6681;53.254;10.398;2023-04-24T07:32:26;0.30;;;0.30;;
13230;SDS011;6681;53.254;10.398;2023-04-24T07:34:52;1.50;;;1.27;;
13230;SDS011;6681;53.254;10.398;2023-04-24T07:37:17;0.53;;;0.53;;
13230;SDS011;6681;53.254;10.398;2023-04-24T07:39:43;1.80;;;0.40;;
13230;SDS011;6681;53.254;10.398;2023-04-24T07:42:09;0.77;;;0.60;;
13230;SDS011;6681;53.254;10.398;2023-04-24T07:44:35;0.70;;;0.70;;
13230;SDS011;6681;53.254;10.398;2023-04-24T07:47:01;0.50;;;0.50;;
13230;SDS011;6681;53.254;10.398;2023-04-24T07:49:26;0.40;;;0.40;;
13230;SDS011;6681;53.254;10.398;2023-04-24T07:51:52;0.90;;;0.40;;
13230;SDS011;6681;53.254;10.398;2023-04-24T07:54:18;0.67;;;0.40;;
13230;SDS011;6681;53.254;10.398;2023-04-24T07:56:44;0.50;;;0.50;;
13230;SDS011;6681;53.254;10.398;2023-04-24T07:59:10;1.03;;;0.60;;
13230;SDS011;6681;53.254;10.398;2023-04-24T08:01:36;0.40;;;0.30;;
13230;SDS011;6681;53.254;10.398;2023-04-24T08:04:02;3.50;;;1.30;;
13230;SDS011;6681;53.254;10.398;2023-04-24T08:06:28;0.53;;;0.50;;
13230;SDS011;6681;53.254;10.398;2023-04-24T08:08:59;2.40;;;0.40;;
13230;SDS011;6681;53.254;10.398;2023-04-24T08:11:25;2.03;;;0.80;;
13230;SDS011;6681;53.254;10.398;2023-04-24T08:13:51;0.50;;;0.50;;
13230;SDS011;6681;53.254;10.398;2023-04-24T08:16:17;0.90;;;0.70;;
13230;SDS011;6681;53.254;10.398;2023-04-24T08:18:43;0.70;;;0.70;;
13230;SDS011;6681;53.254;10.398;2023-04-24T08:21:08;0.80;;;0.80;;
13230;SDS011;6681;53.254;10.398;2023-04-24T08:23:34;0.73;;;0.73;;
13230;SDS011;6681;53.254;10.398;2023-04-24T08:25:59;1.60;;;0.80;;
13230;SDS011;6681;53.254;10.398;2023-04-24T08:28:25;1.80;;;1.00;;
13230;SDS011;6681;53.254;10.398;2023-04-24T08:30:51;1.43;;;1.33;;
13230;SDS011;6681;53.254;10.398;2023-04-24T08:33:23;1.33;;;1.23;;
13230;SDS011;6681;53.254;10.398;2023-04-24T08:35:49;1.20;;;1.10;;
13230;SDS011;6681;53.254;10.398;2023-04-24T08:38:15;1.90;;;1.53;;
13230;SDS011;6681;53.254;10.398;2023-04-24T08:40:41;1.30;;;1.20;;
13230;SDS011;6681;53.254;10.398;2023-04-24T08:43:08;2.87;;;1.67;;
13230;SDS011;6681;53.254;10.398;2023-04-24T08:45:35;1.53;;;1.40;;
13230;SDS011;6681;53.254;10.398;2023-04-24T08:48:01;1.20;;;1.10;;
13230;SDS011;6681;53.254;10.398;2023-04-24T08:50:31;1.13;;;1.03;;
13230;SDS011;6681;53.254;10.398;2023-04-24T08:52:57;1.90;;;1.63;;
13230;SDS011;6681;53.254;10.398;2023-04-24T08:55:23;1.40;;;1.20;;
13230;SDS011;6681;53.254;10.398;2023-04-24T08:57:50;1.47;;;1.20;;
13230;SDS011;6681;53.254;10.398;2023-04-24T09:00:18;2.17;;;1.07;;
13230;SDS011;6681;53.254;10.398;2023-04-24T09:02:45;1.50;;;1.40;;
13230;SDS011;6681;53.254;10.398;2023-04-24T09:05:13;3.07;;;2.00;;
13230;SDS011;6681;53.254;10.398;2023-04-24T09:07:41;3.90;;;1.30;;
13230;SDS011;6681;53.254;10.398;2023-04-24T09:10:10;2.30;;;2.10;;
13230;SDS011;6681;53.254;10.398;2023-04-24T09:12:36;1.90;;;1.80;;
13230;SDS011;6681;53.254;10.398;2023-04-24T09:15:02;2.53;;;2.33;;
13230;SDS011;6681;53.254;10.398;2023-04-24T09:17:30;3.83;;;3.50;;
13230;SDS011;6681;53.254;10.398;2023-04-24T09:19:56;5.23;;;3.83;;
13230;SDS011;6681;53.254;10.398;2023-04-24T09:22:21;7.23;;;3.83;;
13230;SDS011;6681;53.254;10.398;2023-04-24T09:24:47;10.43;;;4.60;;
13230;SDS011;6681;53.254;10.398;2023-04-24T09:27:13;5.27;;;4.77;;
13230;SDS011;6681;53.254;10.398;2023-04-24T09:30:02;7.10;;;3.90;;
13230;SDS011;6681;53.254;10.398;2023-04-24T09:32:27;4.17;;;3.87;;
13230;SDS011;6681;53.254;10.398;2023-04-24T09:37:50;5.27;;;3.77;;
13230;SDS011;6681;53.254;10.398;2023-04-24T09:40:19;4.83;;;4.43;;
13230;SDS011;6681;53.254;10.398;2023-04-24T09:42:54;5.13;;;4.23;;
13230;SDS011;6681;53.254;10.398;2023-04-24T09:45:21;4.20;;;3.83;;
13230;SDS011;6681;53.254;10.398;2023-04-24T09:47:52;6.70;;;3.93;;
13230;SDS011;6681;53.254;10.398;2023-04-24T09:50:20;4.30;;;2.90;;
13230;SDS011;6681;53.254;10.398;2023-04-24T09:52:47;4.37;;;3.97;;
13230;SDS011;6681;53.254;10.398;2023-04-24T09:55:26;6.33;;;3.67;;
13230;SDS011;6681;53.254;10.398;2023-04-24T10:00:26;5.87;;;4.20;;
13230;SDS011;6681;53.254;10.398;2023-04-24T10:03:03;5.20;;;3.33;;
13230;SDS011;6681;53.254;10.398;2023-04-24T10:05:33;4.53;;;3.70;;
13230;SDS011;6681;53.254;10.398;2023-04-24T10:08:12;4.03;;;3.63;;
13230;SDS011;6681;53.254;10.398;2023-04-24T10:10:40;5.13;;;4.33;;
13230;SDS011;6681;53.254;10.398;2023-04-24T10:13:06;5.53;;;3.90;;
13230;SDS011;6681;53.254;10.398;2023-04-24T10:15:34;7.70;;;5.13;;
13230;SDS011;6681;53.254;10.398;2023-04-24T10:18:00;3.70;;;3.40;;
13230;SDS011;6681;53.254;10.398;2023-04-24T10:20:26;6.27;;;4.87;;
13230;SDS011;6681;53.254;10.398;2023-04-24T10:22:55;5.60;;;5.00;;
13230;SDS011;6681;53.254;10.398;2023-04-24T10:25:32;4.17;;;3.77;;
13230;SDS011;6681;53.254;10.398;2023-04-24T10:28:00;7.03;;;4.37;;
13230;SDS011;6681;53.254;10.398;2023-04-24T10:30:28;5.87;;;4.23;;
13230;SDS011;6681;53.254;10.398;2023-04-24T10:32:55;4.40;;;4.00;;
13230;SDS011;6681;53.254;10.398;2023-04-24T10:35:21;3.80;;;3.50;;
13230;SDS011;6681;53.254;10.398;2023-04-24T10:37:54;4.23;;;3.83;;
13230;SDS011;6681;53.254;10.398;2023-04-24T10:40:27;5.07;;;4.17;;
13230;SDS011;6681;53.254;10.398;2023-04-24T10:42:59;5.80;;;5.13;;
13230;SDS011;6681;53.254;10.398;2023-04-24T10:45:31;5.67;;;3.90;;
13230;SDS011;6681;53.254;10.398;2023-04-24T10:47:58;4.47;;;3.93;;
13230;SDS011;6681;53.254;10.398;2023-04-24T10:50:26;6.07;;;3.80;;
13230;SDS011;6681;53.254;10.398;2023-04-24T10:52:55;4.57;;;4.17;;
13230;SDS011;6681;53.254;10.398;2023-04-24T10:55:56;5.33;;;4.83;;
13230;SDS011;6681;53.254;10.398;2023-04-24T10:58:41;4.63;;;3.77;;
13230;SDS011;6681;53.254;10.398;2023-04-24T11:01:24;5.60;;;4.23;;
13230;SDS011;6681;53.254;10.398;2023-04-24T11:03:54;5.10;;;4.60;;
13230;SDS011;6681;53.254;10.398;2023-04-24T11:06:31;6.57;;;4.93;;
13230;SDS011;6681;53.254;10.398;2023-04-24T11:09:09;5.03;;;3.83;;
13230;SDS011;6681;53.254;10.398;2023-04-24T11:11:38;4.17;;;3.53;;
13230;SDS011;6681;53.254;10.398;2023-04-24T11:14:10;5.73;;;3.47;;
13230;SDS011;6681;53.254;10.398;2023-04-24T11:21:42;4.37;;;3.97;;
13230;SDS011;6681;53.254;10.398;2023-04-24T11:26:55;5.70;;;3.20;;
13230;SDS011;6681;53.254;10.398;2023-04-24T11:29:22;4.70;;;1.87;;
13230;SDS011;6681;53.254;10.398;2023-04-24T11:32:13;3.17;;;2.60;;
13230;SDS011;6681;53.254;10.398;2023-04-24T11:34:39;2.33;;;2.13;;
13230;SDS011;6681;53.254;10.398;2023-04-24T11:37:05;3.20;;;2.57;;
13230;SDS011;6681;53.254;10.398;2023-04-24T11:39:36;1.70;;;1.60;;
13230;SDS011;6681;53.254;10.398;2023-04-24T11:42:02;2.30;;;2.10;;
13230;SDS011;6681;53.254;10.398;2023-04-24T11:44:28;2.10;;;1.90;;
13230;SDS011;6681;53.254;10.398;2023-04-24T11:46:56;2.00;;;1.80;;
13230;SDS011;6681;53.254;10.398;2023-04-24T11:49:23;1.40;;;1.30;;
13230;SDS011;6681;53.254;10.398;2023-04-24T11:51:49;4.73;;;2.33;;
13230;SDS011;6681;53.254;10.398;2023-04-24T11:54:15;5.03;;;3.10;;
13230;SDS011;6681;53.254;10.398;2023-04-24T11:56:44;2.87;;;2.40;;
13230;SDS011;6681;53.254;10.398;2023-04-24T11:59:11;2.23;;;2.13;;
13230;SDS011;6681;53.254;10.398;2023-04-24T12:01:44;2.53;;;2.33;;
13230;SDS011;6681;53.254;10.398;2023-04-24T12:04:14;2.40;;;2.20;;
13230;SDS011;6681;53.254;10.398;2023-04-24T12:07:02;2.97;;;2.77;;
13230;SDS011;6681;53.254;10.398;2023-04-24T12:09:27;2.03;;;1.93;;
13230;SDS011;6681;53.254;10.398;2023-04-24T12:11:54;3.77;;;2.10;;
13230;SDS011;6681;53.254;10.398;2023-04-24T12:14:22;4.47;;;2.53;;
13230;SDS011;6681;53.254;10.398;2023-04-24T12:16:48;3.27;;;2.40;;
13230;SDS011;6681;53.254;10.398;2023-04-24T12:19:20;2.83;;;2.30;;
13230;SDS011;6681;53.254;10.398;2023-04-24T12:21:58;2.13;;;1.83;;
13230;SDS011;6681;53.254;10.398;2023-04-24T12:24:25;2.47;;;2.13;;
13230;SDS011;6681;53.254;10.398;2023-04-24T12:26:50;3.57;;;3.27;;
13230;SDS011;6681;53.254;10.398;2023-04-24T12:29:19;4.73;;;3.37;;
13230;SDS011;6681;53.254;10.398;2023-04-24T12:31:46;2.10;;;2.00;;
13230;SDS011;6681;53.254;10.398;2023-04-24T12:34:21;3.07;;;2.63;;
13230;SDS011;6681;53.254;10.398;2023-04-24T12:36:48;4.37;;;2.27;;
13230;SDS011;6681;53.254;10.398;2023-04-24T12:39:17;3.03;;;2.63;;
13230;SDS011;6681;53.254;10.398;2023-04-24T12:41:50;3.13;;;2.00;;
13230;SDS011;6681;53.254;10.398;2023-04-24T12:44:32;4.60;;;2.67;;
13230;SDS011;6681;53.254;10.398;2023-04-24T12:46:59;1.90;;;1.80;;
13230;SDS011;6681;53.254;10.398;2023-04-24T12:49:26;2.30;;;2.10;;
13230;SDS011;6681;53.254;10.398;2023-04-24T12:51:52;1.83;;;1.73;;
13230;SDS011;6681;53.254;10.398;2023-04-24T12:54:18;1.87;;;1.77;;
13230;SDS011;6681;53.254;10.398;2023-04-24T12:56:44;2.73;;;2.53;;
13230;SDS011;6681;53.254;10.398;2023-04-24T12:59:10;2.73;;;2.00;;
13230;SDS011;6681;53.254;10.398;2023-04-24T13:01:35;2.00;;;1.80;;
13230;SDS011;6681;53.254;10.398;2023-04-24T13:04:01;1.30;;;1.20;;
13230;SDS011;6681;53.254;10.398;2023-04-24T13:06:27;2.03;;;1.63;;
13230;SDS011;6681;53.254;10.398;2023-04-24T13:08:52;3.30;;;1.63;;
13230;SDS011;6681;53.254;10.398;2023-04-24T13:11:19;1.87;;;1.77;;
13230;SDS011;6681;53.254;10.398;2023-04-24T13:13:46;2.33;;;1.80;;
13230;SDS011;6681;53.254;10.398;2023-04-24T13:16:12;2.20;;;1.57;;
13230;SDS011;6681;53.254;10.398;2023-04-24T13:18:38;2.40;;;1.17;;
13230;SDS011;6681;53.254;10.398;2023-04-24T13:21:03;1.40;;;1.30;;
13230;SDS011;6681;53.254;10.398;2023-04-24T13:23:29;1.63;;;1.50;;
13230;SDS011;6681;53.254;10.398;2023-04-24T13:25:55;1.57;;;1.40;;
13230;SDS011;6681;53.254;10.398;2023-04-24T13:28:23;2.30;;;1.50;;
13230;SDS011;6681;53.254;10.398;2023-04-24T13:30:49;1.57;;;1.47;;
13230;SDS011;6681;53.254;10.398;2023-04-24T13:33:15;1.27;;;1.20;;
13230;SDS011;6681;53.254;10.398;2023-04-24T13:35:41;2.53;;;1.20;;
13230;SDS011;6681;53.254;10.398;2023-04-24T13:38:07;2.87;;;2.03;;
13230;SDS011;6681;53.254;10.398;2023-04-24T13:40:33;1.53;;;1.40;;
13230;SDS011;6681;53.254;10.398;2023-04-24T13:42:58;1.00;;;1.00;;
13230;SDS011;6681;53.254;10.398;2023-04-24T13:45:25;1.27;;;0.83;;
13230;SDS011;6681;53.254;10.398;2023-04-24T13:47:51;0.93;;;0.80;;
13230;SDS011;6681;53.254;10.398;2023-04-24T13:50:18;0.87;;;0.87;;
13230;SDS011;6681;53.254;10.398;2023-04-24T13:52:45;1.30;;;1.23;;
13230;SDS011;6681;53.254;10.398;2023-04-24T13:55:10;1.57;;;1.43;;
13230;SDS011;6681;53.254;10.398;2023-04-24T13:57:39;3.37;;;1.40;;
13230;SDS011;6681;53.254;10.398;2023-04-24T14:00:08;1.40;;;1.33;;
13230;SDS011;6681;53.254;10.398;2023-04-24T14:02:35;2.67;;;0.97;;
13230;SDS011;6681;53.254;10.398;2023-04-24T14:05:01;2.10;;;0.90;;
13230;SDS011;6681;53.254;10.398;2023-04-24T14:07:28;1.30;;;1.20;;
13230;SDS011;6681;53.254;10.398;2023-04-24T14:09:54;1.60;;;1.50;;
13230;SDS011;6681;53.254;10.398;2023-04-24T14:12:19;1.63;;;1.53;;
13230;SDS011;6681;53.254;10.398;2023-04-24T14:14:46;1.50;;;1.40;;
13230;SDS011;6681;53.254;10.398;2023-04-24T14:17:13;2.10;;;1.90;;
13230;SDS011;6681;53.254;10.398;2023-04-24T14:19:39;2.27;;;1.83;;
13230;SDS011;6681;53.254;10.398;2023-04-24T14:22:04;5.80;;;1.43;;
13230;SDS011;6681;53.254;10.398;2023-04-24T14:24:30;1.30;;;1.20;;
13230;SDS011;6681;53.254;10.398;2023-04-24T14:26:55;1.37;;;1.27;;
13230;SDS011;6681;53.254;10.398;2023-04-24T14:29:22;2.03;;;1.57;;
13230;SDS011;6681;53.254;10.398;2023-04-24T14:31:47;0.97;;;0.97;;
13230;SDS011;6681;53.254;10.398;2023-04-24T14:34:13;0.83;;;0.83;;
13230;SDS011;6681;53.254;10.398;2023-04-24T14:36:39;1.10;;;1.10;;
13230;SDS011;6681;53.254;10.398;2023-04-24T14:39:05;1.07;;;0.97;;
13230;SDS011;6681;53.254;10.398;2023-04-24T14:41:31;1.60;;;1.50;;
13230;SDS011;6681;53.254;10.398;2023-04-24T14:44:00;1.70;;;1.30;;
13230;SDS011;6681;53.254;10.398;2023-04-24T14:46:27;1.17;;;1.17;;
13230;SDS011;6681;53.254;10.398;2023-04-24T14:48:54;0.87;;;0.87;;
13230;SDS011;6681;53.254;10.398;2023-04-24T14:51:21;2.97;;;1.20;;
13230;SDS011;6681;53.254;10.398;2023-04-24T14:53:47;0.57;;;0.57;;
13230;SDS011;6681;53.254;10.398;2023-04-24T14:56:13;1.50;;;0.50;;
13230;SDS011;6681;53.254;10.398;2023-04-24T14:58:39;0.20;;;0.20;;
13230;SDS011;6681;53.254;10.398;2023-04-24T15:01:04;0.30;;;0.30;;